sensor_id;sensor_type;location;lat;lon;timestamp;temperature;humidity
13470;DHT22;6807;48.682;9.032;2023-06-22T00:00:54;19.40;1.00
13470;DHT22;6807;48.682;9.032;2023-06-22T00:03:22;19.30;1.00
13470;DHT22;6807;48.682;9.032;2023-06-22T00:05:50;19.20;1.00
13470;DHT22;6807;48.682;9.032;2023-06-22T00:08:17;19.20;1.00
13470;DHT22;6807;48.682;9.032;2023-06-22T00:10:45;19.10;1.00
13470;DHT22;6807;48.682;9.032;2023-06-22T00:13:13;19.00;1.00
13470;DHT22;6807;48.682;9.032;2023-06-22T00:15:41;18.90;1.00
13470;DHT22;6807;48.682;9.032;2023-06-22T00:18:10;18.90;1.00
13470;DHT22;6807;48.682;9.032;2023-06-22T00:20:37;18.90;1.00
13470;DHT22;6807;48.682;9.032;2023-06-22T00:23:05;18.90;1.00
13470;DHT22;6807;48.682;9.032;2023-06-22T00:25:34;18.90;1.00
13470;DHT22;6807;48.682;9.032;2023-06-22T00:28:01;18.90;1.00
13470;DHT22;6807;48.682;9.032;2023-06-22T00:30:28;18.90;1.00
13470;DHT22;6807;48.682;9.032;2023-06-22T00:32:55;18.90;1.00
13470;DHT22;6807;48.682;9.032;2023-06-22T00:35:23;18.80;1.00
13470;DHT22;6807;48.682;9.032;2023-06-22T00:37:54;18.90;1.00
13470;DHT22;6807;48.682;9.032;2023-06-22T00:40:26;18.90;1.00
13470;DHT22;6807;48.682;9.032;2023-06-22T00:42:54;18.90;1.00
13470;DHT22;6807;48.682;9.032;2023-06-22T00:45:21;18.80;1.00
13470;DHT22;6807;48.682;9.032;2023-06-22T00:47:50;18.80;1.00
13470;DHT22;6807;48.682;9.032;2023-06-22T00:50:19;18.80;1.00
13470;DHT22;6807;48.682;9.032;2023-06-22T00:52:51;18.80;1.00
13470;DHT22;6807;48.682;9.032;2023-06-22T00:55:19;18.70;1.00
13470;DHT22;6807;48.682;9.032;2023-06-22T00:57:47;18.60;1.00
13470;DHT22;6807;48.682;9.032;2023-06-22T01:00:15;18.60;1.00
13470;DHT22;6807;48.682;9.032;2023-06-22T01:02:43;18.70;45.30
13470;DHT22;6807;48.682;9.032;2023-06-22T01:05:12;18.80;45.80
13470;DHT22;6807;48.682;9.032;2023-06-22T01:07:43;18.80;49.70
13470;DHT22;6807;48.682;9.032;2023-06-22T01:10:18;18.70;45.70
13470;DHT22;6807;48.682;9.032;2023-06-22T01:12:52;18.70;92.50
13470;DHT22;6807;48.682;9.032;2023-06-22T01:15:25;18.70;99.80
13470;DHT22;6807;48.682;9.032;2023-06-22T01:17:52;18.70;95.50
13470;DHT22;6807;48.682;9.032;2023-06-22T01:20:20;18.70;96.40
13470;DHT22;6807;48.682;9.032;2023-06-22T01:22:59;18.70;85.00
13470;DHT22;6807;48.682;9.032;2023-06-22T01:25:36;18.60;92.90
13470;DHT22;6807;48.682;9.032;2023-06-22T01:28:23;18.50;99.90
13470;DHT22;6807;48.682;9.032;2023-06-22T01:30:52;18.70;99.90
13470;DHT22;6807;48.682;9.032;2023-06-22T01:33:33;18.60;99.90
13470;DHT22;6807;48.682;9.032;2023-06-22T01:36:01;18.50;99.90
13470;DHT22;6807;48.682;9.032;2023-06-22T01:38:29;18.40;99.90
13470;DHT22;6807;48.682;9.032;2023-06-22T01:40:57;18.40;99.90
13470;DHT22;6807;48.682;9.032;2023-06-22T01:43:26;18.40;99.90
13470;DHT22;6807;48.682;9.032;2023-06-22T01:45:55;18.30;99.90
13470;DHT22;6807;48.682;9.032;2023-06-22T01:48:23;18.30;99.90
13470;DHT22;6807;48.682;9.032;2023-06-22T01:50:52;18.30;99.90
13470;DHT22;6807;48.682;9.032;2023-06-22T01:53:20;18.30;99.90
13470;DHT22;6807;48.682;9.032;2023-06-22T01:55:47;18.20;99.90
13470;DHT22;6807;48.682;9.032;2023-06-22T01:58:14;18.40;99.90
13470;DHT22;6807;48.682;9.032;2023-06-22T02:00:48;18.40;99.90
13470;DHT22;6807;48.682;9.032;2023-06-22T02:03:19;18.50;99.90
13470;DHT22;6807;48.682;9.032;2023-06-22T02:05:52;18.50;99.90
13470;DHT22;6807;48.682;9.032;2023-06-22T02:08:25;18.50;99.90
13470;DHT22;6807;48.682;9.032;2023-06-22T02:10:56;18.40;99.90
13470;DHT22;6807;48.682;9.032;2023-06-22T02:13:25;18.30;99.90
13470;DHT22;6807;48.682;9.032;2023-06-22T02:15:52;18.40;99.90
13470;DHT22;6807;48.682;9.032;2023-06-22T02:18:20;18.30;99.90
13470;DHT22;6807;48.682;9.032;2023-06-22T02:20:47;18.30;99.90
13470;DHT22;6807;48.682;9.032;2023-06-22T02:23:14;18.30;99.90
13470;DHT22;6807;48.682;9.032;2023-06-22T02:25:41;18.20;99.90
13470;DHT22;6807;48.682;9.032;2023-06-22T02:28:10;18.20;99.90
13470;DHT22;6807;48.682;9.032;2023-06-22T02:30:37;18.20;99.90
13470;DHT22;6807;48.682;9.032;2023-06-22T02:33:05;18.10;99.90
13470;DHT22;6807;48.682;9.032;2023-06-22T02:35:33;18.10;99.90
13470;DHT22;6807;48.682;9.032;2023-06-22T02:38:01;18.10;99.90
13470;DHT22;6807;48.682;9.032;2023-06-22T02:40:29;18.00;99.90
13470;DHT22;6807;48.682;9.032;2023-06-22T02:42:57;18.00;99.90
13470;DHT22;6807;48.682;9.032;2023-06-22T02:45:27;18.00;99.90
13470;DHT22;6807;48.682;9.032;2023-06-22T02:47:54;18.00;99.90
13470;DHT22;6807;48.682;9.032;2023-06-22T02:50:21;18.00;99.90
13470;DHT22;6807;48.682;9.032;2023-06-22T02:52:50;18.10;99.90
13470;DHT22;6807;48.682;9.032;2023-06-22T02:55:16;18.10;99.90
13470;DHT22;6807;48.682;9.032;2023-06-22T02:57:43;18.10;99.90
13470;DHT22;6807;48.682;9.032;2023-06-22T03:00:13;18.20;99.90
13470;DHT22;6807;48.682;9.032;2023-06-22T03:02:42;18.20;99.90
13470;DHT22;6807;48.682;9.032;2023-06-22T03:05:09;18.20;99.90
13470;DHT22;6807;48.682;9.032;2023-06-22T03:07:39;18.30;99.90
13470;DHT22;6807;48.682;9.032;2023-06-22T03:10:09;18.20;99.90
13470;DHT22;6807;48.682;9.032;2023-06-22T03:12:36;18.10;99.90
13470;DHT22;6807;48.682;9.032;2023-06-22T03:15:05;18.00;99.90
13470;DHT22;6807;48.682;9.032;2023-06-22T03:17:32;18.10;99.90
13470;DHT22;6807;48.682;9.032;2023-06-22T03:19:59;18.10;99.90
13470;DHT22;6807;48.682;9.032;2023-06-22T03:22:26;18.00;99.90
13470;DHT22;6807;48.682;9.032;2023-06-22T03:24:53;18.00;99.90
13470;DHT22;6807;48.682;9.032;2023-06-22T03:27:21;18.00;99.90
13470;DHT22;6807;48.682;9.032;2023-06-22T03:29:48;18.00;99.90
13470;DHT22;6807;48.682;9.032;2023-06-22T03:32:15;18.00;99.90
13470;DHT22;6807;48.682;9.032;2023-06-22T03:34:42;17.90;99.90
13470;DHT22;6807;48.682;9.032;2023-06-22T03:37:12;17.90;99.90
13470;DHT22;6807;48.682;9.032;2023-06-22T03:39:39;17.80;99.90
13470;DHT22;6807;48.682;9.032;2023-06-22T03:42:06;17.70;99.90
13470;DHT22;6807;48.682;9.032;2023-06-22T03:44:35;17.80;99.90
13470;DHT22;6807;48.682;9.032;2023-06-22T03:47:03;17.80;99.90
13470;DHT22;6807;48.682;9.032;2023-06-22T03:49:32;17.80;99.90
13470;DHT22;6807;48.682;9.032;2023-06-22T03:51:59;17.80;99.90
13470;DHT22;6807;48.682;9.032;2023-06-22T03:54:26;17.80;99.90
13470;DHT22;6807;48.682;9.032;2023-06-22T03:56:53;17.80;99.90
13470;DHT22;6807;48.682;9.032;2023-06-22T03:59:20;17.80;99.90
13470;DHT22;6807;48.682;9.032;2023-06-22T04:01:48;17.80;99.90
13470;DHT22;6807;48.682;9.032;2023-06-22T04:04:16;17.80;99.90
13470;DHT22;6807;48.682;9.032;2023-06-22T04:06:43;17.80;99.90
13470;DHT22;6807;48.682;9.032;2023-06-22T04:09:10;17.90;99.90
13470;DHT22;6807;48.682;9.032;2023-06-22T04:11:37;17.90;99.90
13470;DHT22;6807;48.682;9.032;2023-06-22T04:14:04;17.90;99.90
13470;DHT22;6807;48.682;9.032;2023-06-22T04:16:31;18.00;99.90
13470;DHT22;6807;48.682;9.032;2023-06-22T04:18:59;18.00;99.90
13470;DHT22;6807;48.682;9.032;2023-06-22T04:21:26;18.00;99.90
13470;DHT22;6807;48.682;9.032;2023-06-22T04:23:53;18.00;99.90
13470;DHT22;6807;48.682;9.032;2023-06-22T04:26:20;18.10;99.90
13470;DHT22;6807;48.682;9.032;2023-06-22T04:28:47;18.20;99.90
13470;DHT22;6807;48.682;9.032;2023-06-22T04:31:17;18.40;99.90
13470;DHT22;6807;48.682;9.032;2023-06-22T04:33:45;18.50;99.90
13470;DHT22;6807;48.682;9.032;2023-06-22T04:36:13;18.60;99.90
13470;DHT22;6807;48.682;9.032;2023-06-22T04:38:40;18.70;99.90
13470;DHT22;6807;48.682;9.032;2023-06-22T04:41:08;18.80;99.90
13470;DHT22;6807;48.682;9.032;2023-06-22T04:43:49;18.80;99.90
13470;DHT22;6807;48.682;9.032;2023-06-22T04:46:28;18.80;99.90
13470;DHT22;6807;48.682;9.032;2023-06-22T04:49:09;19.10;99.90
13470;DHT22;6807;48.682;9.032;2023-06-22T04:51:40;19.20;99.90
13470;DHT22;6807;48.682;9.032;2023-06-22T04:54:08;19.30;99.90
13470;DHT22;6807;48.682;9.032;2023-06-22T04:56:36;19.40;99.90
13470;DHT22;6807;48.682;9.032;2023-06-22T04:59:07;19.50;1.00
13470;DHT22;6807;48.682;9.032;2023-06-22T05:04:07;19.70;99.90
13470;DHT22;6807;48.682;9.032;2023-06-22T05:06:40;19.60;1.00
13470;DHT22;6807;48.682;9.032;2023-06-22T05:09:08;19.90;99.90
13470;DHT22;6807;48.682;9.032;2023-06-22T05:14:02;19.90;99.90
13470;DHT22;6807;48.682;9.032;2023-06-22T05:16:29;20.10;99.90
13470;DHT22;6807;48.682;9.032;2023-06-22T05:21:25;20.30;1.00
13470;DHT22;6807;48.682;9.032;2023-06-22T05:23:54;20.50;1.00
13470;DHT22;6807;48.682;9.032;2023-06-22T05:26:22;20.50;1.00
13470;DHT22;6807;48.682;9.032;2023-06-22T05:28:49;21.00;99.90
13470;DHT22;6807;48.682;9.032;2023-06-22T05:31:16;20.80;99.90
13470;DHT22;6807;48.682;9.032;2023-06-22T05:33:47;20.90;99.90
13470;DHT22;6807;48.682;9.032;2023-06-22T05:36:15;21.00;99.90
13470;DHT22;6807;48.682;9.032;2023-06-22T05:38:42;20.80;99.90
13470;DHT22;6807;48.682;9.032;2023-06-22T05:41:17;21.30;99.90
13470;DHT22;6807;48.682;9.032;2023-06-22T05:43:48;21.30;99.90
13470;DHT22;6807;48.682;9.032;2023-06-22T05:56:13;21.50;99.90
13470;DHT22;6807;48.682;9.032;2023-06-22T05:58:49;21.20;99.90
13470;DHT22;6807;48.682;9.032;2023-06-22T06:01:16;21.30;99.90
13470;DHT22;6807;48.682;9.032;2023-06-22T06:03:44;21.30;99.90
13470;DHT22;6807;48.682;9.032;2023-06-22T06:06:11;21.30;99.90
13470;DHT22;6807;48.682;9.032;2023-06-22T06:08:39;21.40;99.90
13470;DHT22;6807;48.682;9.032;2023-06-22T06:11:06;21.60;99.90
13470;DHT22;6807;48.682;9.032;2023-06-22T06:16:02;22.20;99.90
13470;DHT22;6807;48.682;9.032;2023-06-22T06:18:29;22.20;99.90
13470;DHT22;6807;48.682;9.032;2023-06-22T06:20:57;22.40;99.90
13470;DHT22;6807;48.682;9.032;2023-06-22T06:23:24;22.70;99.90
13470;DHT22;6807;48.682;9.032;2023-06-22T06:25:51;22.80;99.90
13470;DHT22;6807;48.682;9.032;2023-06-22T06:31:36;23.20;99.90
13470;DHT22;6807;48.682;9.032;2023-06-22T06:34:05;23.60;99.90
13470;DHT22;6807;48.682;9.032;2023-06-22T06:36:32;23.70;99.90
13470;DHT22;6807;48.682;9.032;2023-06-22T06:39:00;23.80;99.90
13470;DHT22;6807;48.682;9.032;2023-06-22T06:41:27;24.00;99.90
13470;DHT22;6807;48.682;9.032;2023-06-22T06:43:54;24.40;99.90
13470;DHT22;6807;48.682;9.032;2023-06-22T06:46:21;24.50;99.90
13470;DHT22;6807;48.682;9.032;2023-06-22T06:48:50;24.90;99.90
13470;DHT22;6807;48.682;9.032;2023-06-22T06:51:17;24.90;99.90
13470;DHT22;6807;48.682;9.032;2023-06-22T06:58:40;25.30;99.90
13470;DHT22;6807;48.682;9.032;2023-06-22T07:01:10;25.60;99.90
13470;DHT22;6807;48.682;9.032;2023-06-22T07:03:38;25.70;99.90
13470;DHT22;6807;48.682;9.032;2023-06-22T13:33:14;30.60;99.90
13470;DHT22;6807;48.682;9.032;2023-06-22T13:35:41;30.60;99.90
13470;DHT22;6807;48.682;9.032;2023-06-22T13:38:09;30.70;99.90
13470;DHT22;6807;48.682;9.032;2023-06-22T13:40:36;30.60;99.90
13470;DHT22;6807;48.682;9.032;2023-06-22T13:43:04;30.70;99.90
13470;DHT22;6807;48.682;9.032;2023-06-22T13:47:59;30.50;99.90
13470;DHT22;6807;48.682;9.032;2023-06-22T13:50:27;30.50;99.90
13470;DHT22;6807;48.682;9.032;2023-06-22T13:53:09;30.50;99.90
13470;DHT22;6807;48.682;9.032;2023-06-22T13:55:36;30.90;99.90
13470;DHT22;6807;48.682;9.032;2023-06-22T13:58:03;31.30;99.90
13470;DHT22;6807;48.682;9.032;2023-06-22T14:00:30;31.50;99.90
13470;DHT22;6807;48.682;9.032;2023-06-22T14:03:03;32.00;99.90
13470;DHT22;6807;48.682;9.032;2023-06-22T14:05:33;32.90;99.90
13470;DHT22;6807;48.682;9.032;2023-06-22T14:08:00;34.00;99.90
13470;DHT22;6807;48.682;9.032;2023-06-22T14:10:27;34.50;99.90
13470;DHT22;6807;48.682;9.032;2023-06-22T14:12:54;34.80;99.90
13470;DHT22;6807;48.682;9.032;2023-06-22T14:15:21;35.60;99.90
13470;DHT22;6807;48.682;9.032;2023-06-22T14:17:48;34.90;99.90
13470;DHT22;6807;48.682;9.032;2023-06-22T14:20:15;34.20;99.90
13470;DHT22;6807;48.682;9.032;2023-06-22T14:22:43;33.20;99.90
13470;DHT22;6807;48.682;9.032;2023-06-22T14:25:10;33.10;99.90
13470;DHT22;6807;48.682;9.032;2023-06-22T14:27:37;32.90;99.90
13470;DHT22;6807;48.682;9.032;2023-06-22T14:30:05;32.40;77.50
13470;DHT22;6807;48.682;9.032;2023-06-22T14:32:32;32.60;63.70
13470;DHT22;6807;48.682;9.032;2023-06-22T14:34:59;33.20;95.20
13470;DHT22;6807;48.682;9.032;2023-06-22T14:37:26;33.30;36.90
13470;DHT22;6807;48.682;9.032;2023-06-22T14:39:56;33.60;33.40
13470;DHT22;6807;48.682;9.032;2023-06-22T14:42:24;33.70;79.40
13470;DHT22;6807;48.682;9.032;2023-06-22T14:44:54;33.60;10.90
13470;DHT22;6807;48.682;9.032;2023-06-22T14:47:31;33.90;62.80
13470;DHT22;6807;48.682;9.032;2023-06-22T14:49:58;34.00;1.00
13470;DHT22;6807;48.682;9.032;2023-06-22T14:52:25;33.70;1.00
13470;DHT22;6807;48.682;9.032;2023-06-22T14:54:56;33.50;1.00
13470;DHT22;6807;48.682;9.032;2023-06-22T14:57:28;33.20;1.00
13470;DHT22;6807;48.682;9.032;2023-06-22T15:00:07;32.80;1.00
13470;DHT22;6807;48.682;9.032;2023-06-22T15:02:42;32.30;1.00
13470;DHT22;6807;48.682;9.032;2023-06-22T15:05:09;32.40;1.00
13470;DHT22;6807;48.682;9.032;2023-06-22T15:07:36;32.60;1.00
13470;DHT22;6807;48.682;9.032;2023-06-22T15:10:06;32.50;1.00
13470;DHT22;6807;48.682;9.032;2023-06-22T15:15:07;33.50;1.00
13470;DHT22;6807;48.682;9.032;2023-06-22T15:17:34;33.60;1.00
13470;DHT22;6807;48.682;9.032;2023-06-22T15:20:02;33.00;1.00
13470;DHT22;6807;48.682;9.032;2023-06-22T15:22:31;32.60;1.00
13470;DHT22;6807;48.682;9.032;2023-06-22T15:24:57;32.20;1.00
13470;DHT22;6807;48.682;9.032;2023-06-22T15:27:26;32.00;1.00
13470;DHT22;6807;48.682;9.032;2023-06-22T15:29:53;32.00;1.00
13470;DHT22;6807;48.682;9.032;2023-06-22T15:32:20;32.10;1.00
13470;DHT22;6807;48.682;9.032;2023-06-22T15:34:47;31.90;1.00
13470;DHT22;6807;48.682;9.032;2023-06-22T15:39:44;31.80;1.00
13470;DHT22;6807;48.682;9.032;2023-06-22T15:42:14;31.70;1.00
13470;DHT22;6807;48.682;9.032;2023-06-22T15:44:42;31.60;1.00
13470;DHT22;6807;48.682;9.032;2023-06-22T15:52:04;30.80;1.00
13470;DHT22;6807;48.682;9.032;2023-06-22T15:57:27;30.20;1.00
13470;DHT22;6807;48.682;9.032;2023-06-22T15:59:58;30.10;1.00
13470;DHT22;6807;48.682;9.032;2023-06-22T16:02:25;29.90;1.00
13470;DHT22;6807;48.682;9.032;2023-06-22T16:04:53;29.80;1.00
13470;DHT22;6807;48.682;9.032;2023-06-22T16:07:22;29.70;1.00
13470;DHT22;6807;48.682;9.032;2023-06-22T16:09:49;29.50;1.00
13470;DHT22;6807;48.682;9.032;2023-06-22T16:12:17;29.40;1.00
13470;DHT22;6807;48.682;9.032;2023-06-22T16:14:44;29.30;1.00
13470;DHT22;6807;48.682;9.032;2023-06-22T16:17:14;29.30;1.00
13470;DHT22;6807;48.682;9.032;2023-06-22T16:24:35;28.90;1.00
13470;DHT22;6807;48.682;9.032;2023-06-22T16:27:07;29.00;1.00
13470;DHT22;6807;48.682;9.032;2023-06-22T16:29:34;29.00;1.00
13470;DHT22;6807;48.682;9.032;2023-06-22T16:32:02;29.30;1.00
13470;DHT22;6807;48.682;9.032;2023-06-22T16:34:30;29.50;1.00
13470;DHT22;6807;48.682;9.032;2023-06-22T16:36:57;29.40;1.00
13470;DHT22;6807;48.682;9.032;2023-06-22T16:39:24;29.10;1.00
13470;DHT22;6807;48.682;9.032;2023-06-22T16:41:52;29.00;1.00
13470;DHT22;6807;48.682;9.032;2023-06-22T16:44:19;29.00;1.00
13470;DHT22;6807;48.682;9.032;2023-06-22T16:46:46;28.90;1.00
13470;DHT22;6807;48.682;9.032;2023-06-22T16:49:12;28.90;1.00
13470;DHT22;6807;48.682;9.032;2023-06-22T16:51:41;29.00;1.00
13470;DHT22;6807;48.682;9.032;2023-06-22T16:54:08;28.90;1.00
13470;DHT22;6807;48.682;9.032;2023-06-22T16:59:02;28.80;1.00
13470;DHT22;6807;48.682;9.032;2023-06-22T17:01:31;28.60;1.00
13470;DHT22;6807;48.682;9.032;2023-06-22T17:04:04;28.40;1.00
13470;DHT22;6807;48.682;9.032;2023-06-22T17:06:31;28.20;1.00
13470;DHT22;6807;48.682;9.032;2023-06-22T17:09:00;28.10;1.00
13470;DHT22;6807;48.682;9.032;2023-06-22T17:11:29;27.90;1.00
13470;DHT22;6807;48.682;9.032;2023-06-22T17:13:56;27.90;1.00
13470;DHT22;6807;48.682;9.032;2023-06-22T17:16:24;27.70;1.00
13470;DHT22;6807;48.682;9.032;2023-06-22T17:18:52;27.50;1.00
13470;DHT22;6807;48.682;9.032;2023-06-22T17:21:23;27.30;1.00
13470;DHT22;6807;48.682;9.032;2023-06-22T17:23:50;27.20;1.00
13470;DHT22;6807;48.682;9.032;2023-06-22T17:26:21;27.10;1.00
13470;DHT22;6807;48.682;9.032;2023-06-22T17:28:49;27.00;1.00
13470;DHT22;6807;48.682;9.032;2023-06-22T17:31:17;26.90;1.00
13470;DHT22;6807;48.682;9.032;2023-06-22T17:33:45;26.70;1.00
13470;DHT22;6807;48.682;9.032;2023-06-22T17:36:14;26.60;1.00
13470;DHT22;6807;48.682;9.032;2023-06-22T17:38:41;26.40;1.00
13470;DHT22;6807;48.682;9.032;2023-06-22T17:41:08;26.30;1.00
13470;DHT22;6807;48.682;9.032;2023-06-22T17:43:44;26.00;1.00
13470;DHT22;6807;48.682;9.032;2023-06-22T17:46:12;25.90;1.00
13470;DHT22;6807;48.682;9.032;2023-06-22T17:48:43;25.70;1.00
13470;DHT22;6807;48.682;9.032;2023-06-22T17:51:14;25.50;1.00
13470;DHT22;6807;48.682;9.032;2023-06-22T17:53:47;25.30;1.00
13470;DHT22;6807;48.682;9.032;2023-06-22T17:56:14;25.10;1.00
13470;DHT22;6807;48.682;9.032;2023-06-22T17:58:51;25.10;1.00
13470;DHT22;6807;48.682;9.032;2023-06-22T18:01:28;24.90;1.00
13470;DHT22;6807;48.682;9.032;2023-06-22T18:03:55;24.80;1.00
13470;DHT22;6807;48.682;9.032;2023-06-22T18:06:25;24.70;1.00
13470;DHT22;6807;48.682;9.032;2023-06-22T18:08:57;24.60;1.00
13470;DHT22;6807;48.682;9.032;2023-06-22T18:11:31;24.50;1.00
13470;DHT22;6807;48.682;9.032;2023-06-22T18:14:02;24.40;1.00
13470;DHT22;6807;48.682;9.032;2023-06-22T18:16:31;24.30;1.00
13470;DHT22;6807;48.682;9.032;2023-06-22T18:18:58;24.10;1.00
13470;DHT22;6807;48.682;9.032;2023-06-22T18:21:26;24.00;1.00
13470;DHT22;6807;48.682;9.032;2023-06-22T18:23:53;23.90;1.00
13470;DHT22;6807;48.682;9.032;2023-06-22T18:26:21;23.20;1.00
13470;DHT22;6807;48.682;9.032;2023-06-22T18:28:50;22.60;1.00
13470;DHT22;6807;48.682;9.032;2023-06-22T18:31:20;22.30;1.00
13470;DHT22;6807;48.682;9.032;2023-06-22T18:33:48;22.10;1.00
13470;DHT22;6807;48.682;9.032;2023-06-22T18:36:18;22.00;1.00
13470;DHT22;6807;48.682;9.032;2023-06-22T18:38:47;22.00;1.00
13470;DHT22;6807;48.682;9.032;2023-06-22T18:41:22;22.00;1.00
13470;DHT22;6807;48.682;9.032;2023-06-22T18:43:52;21.90;1.00
13470;DHT22;6807;48.682;9.032;2023-06-22T18:46:31;21.90;1.00
13470;DHT22;6807;48.682;9.032;2023-06-22T18:49:01;21.90;1.00
13470;DHT22;6807;48.682;9.032;2023-06-22T18:54:02;21.80;1.00
13470;DHT22;6807;48.682;9.032;2023-06-22T18:56:30;21.80;1.00
13470;DHT22;6807;48.682;9.032;2023-06-22T18:58:57;21.90;1.00
13470;DHT22;6807;48.682;9.032;2023-06-22T19:01:25;21.90;1.00
13470;DHT22;6807;48.682;9.032;2023-06-22T19:03:58;21.90;1.00
13470;DHT22;6807;48.682;9.032;2023-06-22T19:06:54;21.80;1.00
13470;DHT22;6807;48.682;9.032;2023-06-22T19:09:21;21.80;1.00
13470;DHT22;6807;48.682;9.032;2023-06-22T19:11:48;21.70;1.00
13470;DHT22;6807;48.682;9.032;2023-06-22T19:14:19;21.70;1.00
13470;DHT22;6807;48.682;9.032;2023-06-22T19:16:47;21.60;1.00
13470;DHT22;6807;48.682;9.032;2023-06-22T19:19:16;21.50;1.00
13470;DHT22;6807;48.682;9.032;2023-06-22T19:21:43;21.40;1.00
13470;DHT22;6807;48.682;9.032;2023-06-22T19:24:28;21.40;1.00
13470;DHT22;6807;48.682;9.032;2023-06-22T19:26:55;21.30;1.00
13470;DHT22;6807;48.682;9.032;2023-06-22T19:29:23;21.20;1.00
13470;DHT22;6807;48.682;9.032;2023-06-22T19:31:51;21.10;1.00
13470;DHT22;6807;48.682;9.032;2023-06-22T19:34:19;21.00;1.00
13470;DHT22;6807;48.682;9.032;2023-06-22T19:36:47;20.90;1.00
13470;DHT22;6807;48.682;9.032;2023-06-22T19:39:14;20.80;1.00
13470;DHT22;6807;48.682;9.032;2023-06-22T19:41:41;20.70;1.00
13470;DHT22;6807;48.682;9.032;2023-06-22T19:44:08;20.70;1.00
13470;DHT22;6807;48.682;9.032;2023-06-22T19:46:35;20.60;1.00
13470;DHT22;6807;48.682;9.032;2023-06-22T19:49:02;20.50;1.00
13470;DHT22;6807;48.682;9.032;2023-06-22T19:51:33;20.50;1.00
13470;DHT22;6807;48.682;9.032;2023-06-22T19:54:05;20.50;1.00
13470;DHT22;6807;48.682;9.032;2023-06-22T19:56:32;20.50;1.00
13470;DHT22;6807;48.682;9.032;2023-06-22T19:59:09;20.50;1.00
13470;DHT22;6807;48.682;9.032;2023-06-22T20:01:36;20.50;1.00
13470;DHT22;6807;48.682;9.032;2023-06-22T20:04:03;20.50;1.00
13470;DHT22;6807;48.682;9.032;2023-06-22T20:06:30;20.50;1.00
13470;DHT22;6807;48.682;9.032;2023-06-22T20:09:00;20.50;1.00
13470;DHT22;6807;48.682;9.032;2023-06-22T20:11:31;20.60;1.00
13470;DHT22;6807;48.682;9.032;2023-06-22T20:13:59;20.60;1.00
13470;DHT22;6807;48.682;9.032;2023-06-22T20:16:27;20.70;1.00
13470;DHT22;6807;48.682;9.032;2023-06-22T20:19:08;20.70;1.00
13470;DHT22;6807;48.682;9.032;2023-06-22T20:21:38;20.70;1.00
13470;DHT22;6807;48.682;9.032;2023-06-22T20:24:08;20.70;1.00
13470;DHT22;6807;48.682;9.032;2023-06-22T20:26:39;20.70;1.00
13470;DHT22;6807;48.682;9.032;2023-06-22T20:29:25;20.70;1.00
13470;DHT22;6807;48.682;9.032;2023-06-22T20:32:05;20.70;1.00
13470;DHT22;6807;48.682;9.032;2023-06-22T20:34:36;20.60;1.00
13470;DHT22;6807;48.682;9.032;2023-06-22T20:37:05;20.60;1.00
13470;DHT22;6807;48.682;9.032;2023-06-22T20:39:34;20.60;1.00
13470;DHT22;6807;48.682;9.032;2023-06-22T20:42:02;20.70;1.00
13470;DHT22;6807;48.682;9.032;2023-06-22T20:44:31;20.70;1.00
13470;DHT22;6807;48.682;9.032;2023-06-22T20:46:59;20.70;1.00
13470;DHT22;6807;48.682;9.032;2023-06-22T20:51:53;20.60;1.00
13470;DHT22;6807;48.682;9.032;2023-06-22T20:54:20;20.60;1.00
13470;DHT22;6807;48.682;9.032;2023-06-22T20:56:50;21.00;1.00
13470;DHT22;6807;48.682;9.032;2023-06-22T20:59:17;21.00;1.00
13470;DHT22;6807;48.682;9.032;2023-06-22T21:01:44;20.40;1.00
13470;DHT22;6807;48.682;9.032;2023-06-22T21:04:12;20.40;1.00
13470;DHT22;6807;48.682;9.032;2023-06-22T21:06:39;20.20;1.00
13470;DHT22;6807;48.682;9.032;2023-06-22T21:09:06;20.30;1.00
13470;DHT22;6807;48.682;9.032;2023-06-22T21:11:33;19.80;1.00
13470;DHT22;6807;48.682;9.032;2023-06-22T21:14:01;20.00;1.00
13470;DHT22;6807;48.682;9.032;2023-06-22T21:16:28;20.20;1.00
13470;DHT22;6807;48.682;9.032;2023-06-22T21:18:55;20.40;1.00
13470;DHT22;6807;48.682;9.032;2023-06-22T21:21:22;20.10;1.00
13470;DHT22;6807;48.682;9.032;2023-06-22T21:23:49;20.60;1.00
13470;DHT22;6807;48.682;9.032;2023-06-22T21:28:44;20.00;1.00
13470;DHT22;6807;48.682;9.032;2023-06-22T21:31:12;19.90;1.00
13470;DHT22;6807;48.682;9.032;2023-06-22T21:33:40;19.90;1.00
13470;DHT22;6807;48.682;9.032;2023-06-22T21:36:07;19.50;15.40
13470;DHT22;6807;48.682;9.032;2023-06-22T21:38:34;19.90;1.00
13470;DHT22;6807;48.682;9.032;2023-06-22T21:41:00;19.90;1.00
13470;DHT22;6807;48.682;9.032;2023-06-22T21:43:27;19.80;1.00
13470;DHT22;6807;48.682;9.032;2023-06-22T21:45:54;19.20;1.00
13470;DHT22;6807;48.682;9.032;2023-06-22T21:48:22;19.60;1.00
13470;DHT22;6807;48.682;9.032;2023-06-22T21:50:49;19.60;1.00
13470;DHT22;6807;48.682;9.032;2023-06-22T21:55:44;19.50;62.40
13470;DHT22;6807;48.682;9.032;2023-06-22T21:58:11;19.30;55.10
13470;DHT22;6807;48.682;9.032;2023-06-22T22:00:38;19.40;99.90
13470;DHT22;6807;48.682;9.032;2023-06-22T22:05:33;19.20;99.90
13470;DHT22;6807;48.682;9.032;2023-06-22T22:08:00;19.30;99.90
13470;DHT22;6807;48.682;9.032;2023-06-22T22:10:28;19.20;99.90
13470;DHT22;6807;48.682;9.032;2023-06-22T22:15:22;19.00;99.90
13470;DHT22;6807;48.682;9.032;2023-06-22T22:20:16;19.10;99.90
13470;DHT22;6807;48.682;9.032;2023-06-22T22:22:44;19.00;99.90
13470;DHT22;6807;48.682;9.032;2023-06-22T22:25:11;18.90;99.90
13470;DHT22;6807;48.682;9.032;2023-06-22T22:27:38;19.00;99.90
13470;DHT22;6807;48.682;9.032;2023-06-22T22:30:07;18.80;99.90
